Latest Weather Observations for Richmond

IDN60901

Issued at 8:51 am EST Wednesday 18 September 2019 (issued every 10 minutes, with the page automatically refreshed every 10 minutes)

About weather observations | Map of Sydney area stations | Latest observations for Sydney area | Other Formats
Station Details ID: 067105 Name: RICHMOND RAAF Lat: -33.60 Lon: 150.78 Height: 19.0 m
Data from the previous 72 hours. | See also: Recent months at Richmond
Date/Time
EST
Temp
°C
App
Temp
°C
Dew
Point
°C
Rel
Hum
%
Delta-T
°C
Wind Press
QNH
hPa
Press
MSL
hPa
Rain since
9am
mm
Dir  Spd
km/h
Gust
km/h
Spd
kts
Gust
kts
18/08:50am 12.4 8.5 12.2 99 0.1 SSW 24 35 13 19 1026.1 1026.1 55.6
18/08:30am 12.1 8.1 11.9 99 0.1 SSW 24 33 13 18 1025.9 1025.9 55.4
18/08:00am 11.8 8.1 11.6 99 0.1 SSW 22 37 12 20 1025.8 1025.8 54.4
18/07:30am 11.5 7.4 11.3 99 0.1 SSW 24 33 13 18 1025.7 1025.7 54.2
18/07:00am 11.3 7.1 11.1 99 0.1 SSW 24 39 13 21 1025.3 1025.3 53.6
18/06:30am 11.2 7.0 11.0 99 0.1 SSW 24 35 13 19 1025.0 1025.0 53.0
18/06:00am 10.9 5.8 10.6 98 0.2 SSW 28 39 15 21 1024.8 1024.8 52.6
18/05:56am 10.9 5.8 10.6 98 0.2 SSW 28 39 15 21 1024.7 1024.7 52.4
18/05:39am 10.8 6.1 10.6 99 0.1 SSW 26 41 14 22 1024.7 1024.7 52.4
18/05:30am 10.7 6.3 10.5 99 0.1 SSW 24 37 13 20 1024.6 1024.6 52.4
18/05:00am 10.5 6.0 10.2 98 0.2 SSW 24 35 13 19 1024.6 1024.6 51.8
18/04:30am 10.4 5.9 10.1 98 0.2 SSW 24 35 13 19 1024.4 1024.4 51.2
18/04:00am 10.3 5.4 10.0 98 0.2 SSW 26 35 14 19 1024.1 1024.1 50.8
18/03:30am 10.3 5.8 10.0 98 0.2 SSW 24 37 13 20 1024.0 1024.0 50.8
18/03:00am 10.4 5.9 10.1 98 0.2 SSW 24 35 13 19 1024.1 1024.1 50.6
18/02:55am 10.4 5.9 10.1 98 0.2 SSW 24 32 13 17 1024.1 1024.1 50.6
18/02:46am 10.4 6.3 10.1 98 0.2 SSW 22 33 12 18 1024.0 1024.0 50.6
18/02:30am 10.3 5.4 10.0 98 0.2 SSW 26 41 14 22 1024.1 1024.1 50.6
18/02:00am 10.6 6.2 10.4 99 0.1 SSW 24 32 13 17 1024.5 1024.5 50.0
18/01:30am 10.9 7.3 10.6 98 0.2 SSW 20 32 11 17 1024.5 1024.5 49.4
18/01:00am 11.2 7.3 10.9 98 0.2 SSW 22 32 12 17 1024.5 1024.5 48.2
18/12:48am 11.4 8.9 11.1 98 0.2 SSW 15 24 8 13 1024.4 1024.4 47.8
18/12:30am 11.2 8.3 10.9 98 0.2 SSW 17 22 9 12 1024.2 1024.2 47.6
18/12:09am 11.2 8.3 10.9 98 0.2 SSW 17 24 9 13 1024.4 1024.4 47.6
18/12:00am 11.2 7.9 10.9 98 0.2 SSW 19 30 10 16 1024.4 1024.4 47.6
 
Date/Time
EST
Temp
°C
App
Temp
°C
Dew
Point
°C
Rel
Hum
%
Delta-T
°C
Wind Press
QNH
hPa
Press
MSL
hPa
Rain since
9am
mm
Dir  Spd
km/h
Gust
km/h
Spd
kts
Gust
kts
17/11:30pm 11.1 8.9 10.8 98 0.2 SSW 13 20 7 11 1024.4 1024.4 47.0
17/11:00pm 11.4 8.5 11.1 98 0.2 SSW 17 26 9 14 1024.6 1024.6 46.4
17/10:49pm 11.6 8.8 11.3 98 0.2 SSW 17 24 9 13 1024.6 1024.6 46.4
17/10:30pm 11.8 9.4 11.5 98 0.2 SSW 15 20 8 11 1024.5 1024.5 46.0
17/10:00pm 11.7 9.7 11.4 98 0.2 SW 13 19 7 10 1024.8 1024.8 46.0
17/09:30pm 11.7 9.3 11.4 98 0.2 SSW 15 20 8 11 1024.8 1024.8 46.0
17/09:00pm 11.7 9.3 11.4 98 0.2 SSW 15 20 8 11 1024.6 1024.6 46.0
17/08:30pm 11.9 8.6 11.7 99 0.1 SSW 20 28 11 15 1024.6 1024.6 45.8
17/08:00pm 11.8 9.5 11.6 99 0.1 SSW 15 24 8 13 1024.3 1024.3 44.8
17/07:30pm 12.0 8.8 11.8 99 0.1 SSW 20 28 11 15 1024.0 1024.0 44.6
17/07:00pm 12.1 8.9 11.9 99 0.1 S 20 33 11 18 1023.5 1023.5 44.2
17/06:59pm 12.1 8.9 11.9 99 0.1 S 20 33 11 18 1023.4 1023.4 44.2
17/06:30pm 12.0 8.4 11.8 99 0.1 S 22 30 12 16 1022.8 1022.8 42.8
17/06:00pm 11.9 8.3 11.7 99 0.1 SSW 22 30 12 16 1022.4 1022.4 37.6
17/05:55pm 12.0 8.8 11.8 99 0.1 SSW 20 28 11 15 1022.3 1022.3 37.0
17/05:36pm 11.9 8.8 11.7 99 0.1 SSW 19 28 10 15 1022.1 1022.1 36.2
17/05:30pm 11.8 8.5 11.6 99 0.1 SSW 20 30 11 16 1021.9 1021.9 35.8
17/05:07pm 11.6 7.9 11.4 99 0.1 SSW 22 32 12 17 1021.7 1021.7 33.0
17/05:00pm 11.6 7.5 11.4 99 0.1 SSW 24 30 13 16 1021.7 1021.7 32.4
17/04:30pm 11.4 8.0 11.2 99 0.1 SSW 20 30 11 16 1021.5 1021.5 31.0
17/04:00pm 11.2 7.4 11.0 99 0.1 SW 22 30 12 16 1021.3 1021.3 29.2
17/03:48pm 11.1 7.6 10.9 99 0.1 SW 20 30 11 16 1021.2 1021.2 28.2
17/03:30pm 11.0 7.1 10.7 98 0.2 SW 22 30 12 16 1021.2 1021.2 27.6
17/03:00pm 10.9 7.3 10.7 99 0.1 SW 20 28 11 15 1021.1 1021.1 25.2
17/02:30pm 10.7 7.1 10.5 99 0.1 SW 20 28 11 15 1021.1 1021.1 23.4
17/02:00pm 10.6 6.9 10.3 98 0.2 SW 20 32 11 17 1021.3 1021.3 21.6
17/01:30pm 10.3 6.2 10.1 99 0.1 SW 22 26 12 14 1021.3 1021.3 19.4
17/01:00pm 10.1 6.5 10.0 99 0.1 SW 19 28 10 15 1021.6 1021.6 17.4
17/12:30pm 10.0 5.8 9.9 99 0.1 SW 22 28 12 15 1021.5 1021.5 15.8
17/12:01pm 9.6 5.7 9.3 98 0.1 SW 20 28 11 15 1021.9 1021.9 12.8
17/12:00pm 9.5 5.5 9.2 98 0.1 SW 20 28 11 15 1021.9 1021.9 12.6
17/11:35am 9.2 5.2 8.9 98 0.1 SW 20 30 11 16 1022.1 1022.1 9.8
17/11:30am 9.2 5.2 8.9 98 0.1 SW 20 30 11 16 1022.1 1022.1 9.2
17/11:00am 9.0 5.9 8.7 98 0.1 SSW 15 19 8 10 1022.4 1022.4 6.8
17/10:30am 8.8 5.6 8.5 98 0.1 SSW 15 22 8 12 1022.4 1022.4 4.8
17/10:00am 8.9 5.4 8.6 98 0.1 SSW 17 22 9 12 1022.6 1022.6 2.4
17/09:30am 8.9 4.8 8.6 98 0.1 SW 20 28 11 15 1023.0 1023.0 1.0
17/09:00am 8.9 4.8 8.6 98 0.1 SW 20 28 11 15 1022.8 1022.8 12.2
17/08:30am 8.7 4.7 8.4 98 0.1 SW 19 26 10 14 1022.9 1022.9 11.2
17/08:00am 8.7 4.7 8.4 98 0.1 SW 19 26 10 14 1022.7 1022.7 10.4
17/07:30am 8.5 5.2 8.2 98 0.1 SW 15 20 8 11 1023.0 1023.0 9.4
17/07:00am 8.4 5.5 8.1 98 0.1 SW 13 17 7 9 1022.8 1022.8 8.2
17/06:30am 8.4 5.9 8.1 98 0.1 WSW 11 17 6 9 1022.7 1022.7 7.0
17/06:00am 8.2 4.8 7.8 97 0.2 SW 15 22 8 12 1022.3 1022.3 6.4
17/05:30am 8.2 5.2 7.9 98 0.1 SW 13 17 7 9 1021.9 1021.9 6.2
17/05:00am 8.3 5.4 8.0 98 0.1 SW 13 19 7 10 1021.8 1021.8 5.0
17/04:30am 8.4 5.5 8.1 98 0.1 SSW 13 19 7 10 1021.9 1021.9 4.6
17/04:00am 8.5 5.2 8.2 98 0.1 SW 15 20 8 11 1022.1 1022.1 3.8
17/03:30am 8.9 5.4 8.6 98 0.1 SW 17 24 9 13 1022.1 1022.1 3.4
17/03:22am 9.0 5.5 8.7 98 0.1 SW 17 26 9 14 1022.1 1022.1 3.4
17/03:00am 9.2 6.5 8.9 98 0.1 SW 13 22 7 12 1022.1 1022.1 3.2
17/02:30am 9.4 5.4 9.1 98 0.1 SSW 20 32 11 17 1021.9 1021.9 2.8
17/02:19am 9.6 5.9 9.3 98 0.1 SSW 19 28 10 15 1021.6 1021.6 2.8
17/02:13am 9.7 5.9 9.2 97 0.2 SSW 19 28 10 15 1021.6 1021.6 2.8
17/02:00am 10.0 6.4 9.7 98 0.1 SSW 19 26 10 14 1021.4 1021.4 2.8
17/01:55am 10.2 7.0 9.9 98 0.2 SSW 17 24 9 13 1021.4 1021.4 2.8
17/01:30am 10.9 7.5 10.6 98 0.2 SSW 19 28 10 15 1022.1 1022.1 2.8
17/01:00am 11.5 8.1 11.2 98 0.2 SSE 20 33 11 18 1021.5 1021.5 2.6
17/12:30am 11.8 9.0 11.5 98 0.2 S 17 24 9 13 1021.1 1021.1 2.6
17/12:00am 11.9 10.7 11.6 98 0.2 S 9 15 5 8 1022.0 1022.0 2.0
 
Date/Time
EST
Temp
°C
App
Temp
°C
Dew
Point
°C
Rel
Hum
%
Delta-T
°C
Wind Press
QNH
hPa
Press
MSL
hPa
Rain since
9am
mm
Dir  Spd
km/h
Gust
km/h
Spd
kts
Gust
kts
16/11:45pm 12.0 9.3 11.7 98 0.2 SSE 17 22 9 12 1021.9 1021.9 2.0
16/11:30pm 12.0 8.4 11.7 98 0.2 S 22 32 12 17 1022.0 1022.0 1.6
16/11:00pm 13.0 10.6 12.7 98 0.2 S 17 22 9 12 1021.8 1021.8 0.8
16/10:57pm 13.1 11.1 12.8 98 0.2 S 15 20 8 11 1022.0 1022.0 0.8
16/10:45pm 13.3 11.0 13.0 98 0.2 S 17 22 9 12 1021.8 1021.8 0.4
16/10:30pm 13.3 10.4 13.0 98 0.2 SSE 20 28 11 15 1021.3 1021.3 0.4
16/10:12pm 14.1 11.1 12.5 90 0.9 SSE 20 30 11 16 1021.0 1021.0 0.0
16/10:00pm 15.3 14.1 11.5 78 2.0 SSW 9 15 5 8 1021.4 1021.4 0.0
16/09:30pm 15.4 14.1 11.4 77 2.1 S 9 13 5 7 1020.6 1020.6 0.0
16/09:00pm 15.3 13.7 11.7 79 1.9 S 11 19 6 10 1021.0 1021.0 0.0
16/08:30pm 15.4 12.2 11.8 79 1.9 SSE 20 26 11 14 1020.5 1020.5 0.0
16/08:00pm 16.1 13.5 10.8 71 2.8 SSE 15 22 8 12 1020.5 1020.5 0.0
16/07:30pm 16.2 13.4 11.2 72 2.7 SSE 17 26 9 14 1020.1 1020.1 0.0
16/07:00pm 16.1 13.5 11.9 76 2.3 SSE 17 28 9 15 1019.9 1019.9 0.0
16/06:30pm 16.7 13.9 11.4 71 2.9 S 17 26 9 14 1019.6 1019.6 0.0
16/06:00pm 16.9 12.8 11.6 71 2.9 SSE 24 33 13 18 1018.6 1018.6 0.0
16/05:30pm 17.1 13.0 11.6 70 3.0 SSE 24 33 13 18 1018.2 1018.2 0.0
16/05:00pm 17.6 13.8 12.3 71 2.9 SSE 24 39 13 21 1017.0 1017.0 0.0
16/04:30pm 18.0 13.5 12.5 70 3.1 SSE 28 39 15 21 1016.4 1016.4 0.0
16/04:00pm 18.8 13.4 12.8 68 3.4 SE 33 54 18 29 1015.1 1015.1 0.0
16/03:30pm 20.6 13.8 11.8 57 4.9 SE 39 57 21 31 1013.2 1013.2 0.0
16/03:16pm 23.2 19.3 7.3 36 8.3 WSW 17 50 9 27 1012.7 1012.7 0.0
16/03:00pm 30.0 25.6 -6.3 9 15.5 W 9 15 5 8 1011.6 1011.6 0.0
16/02:30pm 29.8 22.3 -8.0 8 15.7 W 24 33 13 18 1011.5 1011.5 0.0
16/02:00pm 30.3 22.6 -6.1 9 15.7 W 26 35 14 19 1011.7 1011.7 0.0
16/01:30pm 30.0 25.9 -6.3 9 15.5 SE 7 13 4 7 1012.2 1012.2 0.0
16/01:00pm 29.3 24.2 -5.4 10 15.0 E 13 20 7 11 1012.4 1012.4 0.0
16/12:30pm 28.5 23.7 -6.0 10 14.7 N 11 19 6 10 1012.9 1012.9 0.0
16/12:00pm 27.5 22.9 -4.4 12 13.8 N 11 19 6 10 1013.4 1013.4 0.0
16/11:30am 26.8 20.7 -7.3 10 13.9 N 17 24 9 13 1014.0 1014.0 0.0
16/11:00am 25.0 18.5 -7.5 11 13.0 N 19 30 10 16 1014.3 1014.3 0.0
16/10:30am 25.1 18.1 -7.4 11 13.0 N 22 30 12 16 1014.5 1014.5 0.0
16/10:00am 24.9 18.4 -6.4 12 12.8 NNE 20 26 11 14 1014.5 1014.5 0.0
16/09:30am 24.6 18.1 -5.6 13 12.5 N 20 28 11 15 1014.9 1014.9 0.0
16/09:00am 24.1 19.5 -0.9 19 11.2 NE 13 17 7 9 1015.2 1015.2 0.0
16/08:30am 22.5 18.4 2.1 26 9.6 ENE 13 17 7 9 1015.6 1015.6 0.0
16/08:00am 21.2 17.2 0.4 25 9.3 ENE 11 15 6 8 1015.7 1015.7 0.0
16/07:30am 19.8 15.2 -1.3 24 9.1 NNE 13 19 7 10 1015.5 1015.5 0.0
16/07:00am 16.7 13.3 2.0 37 6.6 N 9 15 5 8 1015.8 1015.8 0.0
16/06:54am 15.7 12.3 4.1 46 5.4 N 11 15 6 8 1015.8 1015.8 0.0
16/06:30am 10.7 10.3 8.1 84 1.3 CALM 0 0 0 0 1015.9 1015.9 0.0
16/06:00am 8.6 7.7 5.9 83 1.2 CALM 0 0 0 0 1015.9 1015.9 0.0
16/05:30am 9.0 7.3 6.1 82 1.3 SE 4 7 2 4 1016.1 1016.1 0.0
16/05:00am 7.2 4.7 4.7 84 1.1 ENE 7 9 4 5 1016.0 1016.0 0.0
16/04:30am 9.0 7.5 6.8 86 1.0 SE 4 9 2 5 1016.2 1016.2 0.0
16/04:00am 10.9 10.3 7.2 78 1.8 CALM 0 0 0 0 1016.0 1016.0 0.0
16/03:30am 10.5 9.7 8.1 85 1.2 NE 2 7 1 4 1016.2 1016.2 0.0
16/03:00am 9.3 8.7 7.6 89 0.8 CALM 0 0 0 0 1016.3 1016.3 0.0
16/02:30am 9.0 8.3 7.1 88 0.9 CALM 0 0 0 0 1016.6 1016.6 0.0
16/02:00am 9.4 8.7 7.0 85 1.1 CALM 0 0 0 0 1016.9 1016.9 0.0
16/01:30am 9.4 8.7 6.8 84 1.2 CALM 0 0 0 0 1017.3 1017.3 0.0
16/01:00am 10.1 8.8 7.5 84 1.2 NNW 4 7 2 4 1017.4 1017.4 0.0
16/12:30am 10.2 9.6 7.3 82 1.4 CALM 0 0 0 0 1017.8 1017.8 0.0
16/12:00am 11.1 10.4 7.0 76 1.9 CALM 0 0 0 0 1017.9 1017.9 0.0
 
Date/Time
EST
Temp
°C
App
Temp
°C
Dew
Point
°C
Rel
Hum
%
Delta-T
°C
Wind Press
QNH
hPa
Press
MSL
hPa
Rain since
9am
mm
Dir  Spd
km/h
Gust
km/h
Spd
kts
Gust
kts
15/11:30pm 11.1 9.2 6.6 74 2.1 NE 6 9 3 5 1018.0 1018.0 0.0
15/11:00pm 12.0 11.4 7.3 73 2.3 CALM 0 6 0 3 1018.3 1018.3 0.0
15/10:30pm 13.0 11.7 7.5 69 2.7 NE 4 7 2 4 1018.5 1018.5 0.0
15/10:00pm 13.4 12.2 6.3 62 3.4 ENE 2 7 1 4 1018.4 1018.4 0.0
15/09:30pm 13.7 12.8 6.1 60 3.6 CALM 0 0 0 0 1018.5 1018.5 0.0
15/09:00pm 15.9 14.9 7.4 57 4.2 NE 2 7 1 4 1018.5 1018.5 0.0
15/08:30pm 15.6 15.0 7.4 58 4.1 CALM 0 0 0 0 1018.5 1018.5 0.0
15/08:00pm 15.7 14.9 6.4 54 4.5 CALM 0 0 0 0 1018.6 1018.6 0.0
15/07:30pm 17.8 16.8 5.4 44 6.0 CALM 0 0 0 0 1018.4 1018.4 0.0
15/07:00pm 19.2 18.4 6.3 43 6.4 CALM 0 0 0 0 1018.3 1018.3 0.0
15/06:30pm 22.2 19.4 5.2 33 8.5 E 9 11 5 6 1018.0 1018.0 0.0
15/06:00pm 24.0 21.0 3.9 27 9.9 ENE 9 11 5 6 1017.6 1017.6 0.0
15/05:30pm 24.0 20.5 3.3 26 10.1 ENE 11 15 6 8 1017.3 1017.3 0.0
15/05:00pm 26.4 22.8 3.0 22 11.5 NE 11 15 6 8 1017.2 1017.2 0.0
15/04:30pm 27.1 23.0 2.2 20 12.1 ENE 13 19 7 10 1017.1 1017.1 0.0
15/04:00pm 28.0 23.3 0.7 17 13.0 ENE 15 22 8 12 1017.1 1017.1 0.0
15/03:30pm 28.3 24.0 0.9 17 13.1 ENE 13 19 7 10 1017.2 1017.2 0.0
15/03:00pm 28.5 24.1 0.3 16 13.4 ENE 13 17 7 9 1017.2 1017.2 0.0
15/02:30pm 28.4 24.5 1.0 17 13.2 ENE 11 17 6 9 1017.5 1017.5 0.0
15/02:00pm 28.0 23.9 -0.1 16 13.2 E 11 19 6 10 1017.9 1017.9 0.0
15/01:30pm 28.3 24.7 0.9 17 13.1 ENE 9 19 5 10 1018.3 1018.3 0.0
15/01:00pm 27.8 23.5 1.3 18 12.7 E 13 17 7 9 1018.9 1018.9 0.0
15/12:30pm 27.2 23.0 1.6 19 12.3 ESE 13 19 7 10 1019.5 1019.5 0.0
15/12:00pm 26.6 22.8 1.8 20 11.9 ENE 11 17 6 9 1019.9 1019.9 0.0
15/11:30am 25.8 22.1 2.5 22 11.3 NE 11 17 6 9 1020.2 1020.2 0.0
15/11:00am 23.2 21.2 8.5 39 7.8 NE 9 17 5 9 1020.9 1020.9 0.0
15/10:30am 21.4 19.6 9.3 46 6.5 ENE 9 15 5 8 1021.7 1021.7 0.0
15/10:00am 19.0 17.6 9.5 54 5.0 ENE 7 13 4 7 1022.3 1022.3 0.0
15/09:30am 16.1 14.6 8.6 61 3.8 N 6 9 3 5 1022.8 1022.8 0.0
15/09:00am 14.2 13.6 8.8 70 2.7 NE 2 7 1 4 1023.1 1023.1 0.0

Latest Capital City Observations: Canberra | Sydney | Melbourne | Brisbane | Adelaide | Perth | Hobart | Darwin

Other formats

Comma delimited format used in spreadsheet applications
http://www.bom.gov.au/fwo/IDN60901/IDN60901.95753.axf

JavaScript Object Notation format (JSON) in row-major order
http://www.bom.gov.au/fwo/IDN60901/IDN60901.95753.json

Data quality

Most of these data are generated automatically and are frequently updated. Quality checks on data are not normally performed. It is possible for incorrect values to appear. Refer to information at About Latest Weather Observations and please check the disclaimer before using these data.